CFG7MA LEPA-EDDF
Flight info
| Callsign | CFG7MA |
|---|---|
| Flight time | 1h 48m |
| Altitude | 32000 |
| Route | MEROS DCT LAPIT DCT CHELY DCT LUMAS DCT MAXIR DCT LUSOL DCT BODRU DCT OKTET DCT IRMAR/N0450F360 DCT KINES DCT VANAS DCT MOBLO DCT UBIMA DCT SOSAL DCT KORED DCT BERSU N871 DITON/N0447F350 DCT LADOL/N0448F360 T163 EMPAX EMPAX5B |
| Aircraft | A321/M-SDE3FGHIRWY/LB1 |
Departure
| Time | 2026-05-04 17:14 |
|---|---|
| Airport | Palma de Mallorca Airport (LEPA) |
Arrival
| Time | 2026-05-04 19:02 |
|---|---|
| Airport | Frankfurt Main Airport (EDDF) |
| Time | Latitude | Longitude | Altitude | Speed | Heading |
|---|---|---|---|---|---|
| 2026-05-04 16:31 | 39.55023 | 2.73488 | 38 ft | 0 kts | 165° |
| 2026-05-04 16:59 | 39.55057 | 2.73459 | 36 ft | 4 kts | 99° |
| 2026-05-04 17:00 | 39.55050 | 2.73420 | 38 ft | 0 kts | 59° |
| 2026-05-04 17:01 | 39.55050 | 2.73421 | 38 ft | 1 kts | 59° |
| 2026-05-04 17:02 | 39.55128 | 2.73585 | 38 ft | 13 kts | 58° |
| 2026-05-04 17:02 | 39.55166 | 2.73773 | 38 ft | 10 kts | 92° |
| 2026-05-04 17:03 | 39.55203 | 2.73821 | 38 ft | 11 kts | 355° |
| 2026-05-04 17:03 | 39.55305 | 2.73747 | 38 ft | 19 kts | 328° |
| 2026-05-04 17:03 | 39.55506 | 2.73591 | 38 ft | 13 kts | 329° |
| 2026-05-04 17:04 | 39.55647 | 2.73510 | 38 ft | 14 kts | 20° |
| 2026-05-04 17:04 | 39.55776 | 2.73755 | 38 ft | 15 kts | 58° |
| 2026-05-04 17:05 | 39.55875 | 2.73966 | 38 ft | 12 kts | 58° |
| 2026-05-04 17:05 | 39.55952 | 2.74128 | 38 ft | 9 kts | 58° |
| 2026-05-04 17:06 | 39.56059 | 2.74356 | 38 ft | 16 kts | 58° |
| 2026-05-04 17:06 | 39.56123 | 2.74449 | 38 ft | 8 kts | 20° |
| 2026-05-04 17:07 | 39.56134 | 2.74451 | 38 ft | 0 kts | 11° |
| 2026-05-04 17:10 | 39.56181 | 2.74437 | 36 ft | 14 kts | 331° |
| 2026-05-04 17:10 | 39.56234 | 2.74278 | 38 ft | 0 kts | 239° |
| 2026-05-04 17:14 | 39.55239 | 2.72191 | 87 ft | 157 kts | 236° |
| 2026-05-04 17:14 | 39.54699 | 2.71017 | 818 ft | 146 kts | 238° |
| 2026-05-04 17:14 | 39.53588 | 2.68651 | 1559 ft | 171 kts | 237° |
| 2026-05-04 17:15 | 39.52931 | 2.67275 | 1708 ft | 188 kts | 236° |
| 2026-05-04 17:15 | 39.50428 | 2.65884 | 2046 ft | 236 kts | 167° |
| 2026-05-04 17:16 | 39.48271 | 2.69319 | 3093 ft | 276 kts | 107° |
| 2026-05-04 17:16 | 39.47707 | 2.76926 | 5306 ft | 291 kts | 97° |
| 2026-05-04 17:17 | 39.47551 | 2.79553 | 6062 ft | 294 kts | 98° |
| 2026-05-04 17:17 | 39.46839 | 2.87574 | 8060 ft | 305 kts | 102° |
| 2026-05-04 17:18 | 39.46549 | 2.90307 | 8721 ft | 308 kts | 102° |
| 2026-05-04 17:18 | 39.45947 | 2.95880 | 10059 ft | 316 kts | 101° |
| 2026-05-04 17:19 | 39.45297 | 3.01863 | 10420 ft | 357 kts | 101° |
| 2026-05-04 17:19 | 39.44583 | 3.08455 | 11137 ft | 379 kts | 101° |
| 2026-05-04 17:20 | 39.43852 | 3.15272 | 12386 ft | 386 kts | 100° |
| 2026-05-04 17:20 | 39.43278 | 3.22241 | 13596 ft | 395 kts | 90° |
| 2026-05-04 17:20 | 39.43603 | 3.25784 | 14145 ft | 400 kts | 78° |
| 2026-05-04 17:21 | 39.45348 | 3.31362 | 14965 ft | 408 kts | 58° |
| 2026-05-04 17:21 | 39.48299 | 3.37726 | 15950 ft | 416 kts | 58° |
| 2026-05-04 17:22 | 39.50295 | 3.42061 | 16613 ft | 422 kts | 58° |
| 2026-05-04 17:22 | 39.51288 | 3.44222 | 16922 ft | 424 kts | 58° |
| 2026-05-04 17:23 | 39.55857 | 3.54218 | 18404 ft | 434 kts | 58° |
| 2026-05-04 17:23 | 39.57399 | 3.57594 | 18776 ft | 438 kts | 58° |
| 2026-05-04 17:23 | 39.60532 | 3.64451 | 19528 ft | 446 kts | 58° |
| 2026-05-04 17:24 | 39.62124 | 3.67938 | 19897 ft | 450 kts | 58° |
| 2026-05-04 17:24 | 39.66948 | 3.78567 | 21009 ft | 461 kts | 59° |
| 2026-05-04 17:25 | 39.68581 | 3.82172 | 21379 ft | 465 kts | 59° |
| 2026-05-04 17:25 | 39.71893 | 3.89474 | 22106 ft | 473 kts | 59° |
| 2026-05-04 17:26 | 39.75233 | 3.96841 | 22858 ft | 479 kts | 59° |
| 2026-05-04 17:26 | 39.80333 | 4.08182 | 23868 ft | 489 kts | 59° |
| 2026-05-04 17:27 | 39.83779 | 4.15878 | 24501 ft | 494 kts | 60° |
| 2026-05-04 17:27 | 39.86805 | 4.23931 | 25081 ft | 497 kts | 73° |
| 2026-05-04 17:28 | 39.88666 | 4.32627 | 25691 ft | 500 kts | 77° |
| 2026-05-04 17:29 | 39.91376 | 4.45781 | 26601 ft | 506 kts | 77° |
| 2026-05-04 17:29 | 39.95893 | 4.58145 | 27424 ft | 515 kts | 44° |
| 2026-05-04 17:30 | 40.05275 | 4.63951 | 28147 ft | 496 kts | 358° |
| 2026-05-04 17:31 | 40.12011 | 4.63133 | 28608 ft | 486 kts | 343° |
| 2026-05-04 17:31 | 40.22107 | 4.60935 | 29334 ft | 494 kts | 343° |
| 2026-05-04 17:32 | 40.28843 | 4.59462 | 29988 ft | 494 kts | 343° |
| 2026-05-04 17:33 | 40.38994 | 4.57262 | 30954 ft | 491 kts | 343° |
| 2026-05-04 17:33 | 40.42370 | 4.56528 | 31234 ft | 492 kts | 343° |
| 2026-05-04 17:34 | 40.52486 | 4.54320 | 32175 ft | 489 kts | 343° |
| 2026-05-04 17:34 | 40.55837 | 4.53581 | 32502 ft | 488 kts | 343° |
| 2026-05-04 17:35 | 40.66201 | 4.53909 | 33410 ft | 501 kts | 358° |
| 2026-05-04 17:35 | 40.73148 | 4.54749 | 33906 ft | 501 kts | 359° |
| 2026-05-04 17:36 | 40.80040 | 4.55585 | 33938 ft | 495 kts | 358° |
| 2026-05-04 17:36 | 40.86844 | 4.56389 | 33934 ft | 493 kts | 358° |
| 2026-05-04 17:37 | 40.93686 | 4.57182 | 33937 ft | 493 kts | 358° |
| 2026-05-04 17:37 | 41.00519 | 4.57982 | 33938 ft | 492 kts | 358° |
| 2026-05-04 17:38 | 41.07329 | 4.58788 | 33958 ft | 492 kts | 358° |
| 2026-05-04 17:38 | 41.14154 | 4.59597 | 33942 ft | 492 kts | 358° |
| 2026-05-04 17:39 | 41.24390 | 4.60805 | 33935 ft | 492 kts | 358° |
| 2026-05-04 17:39 | 41.31217 | 4.61617 | 33952 ft | 492 kts | 359° |
| 2026-05-04 17:40 | 41.38046 | 4.62430 | 33945 ft | 492 kts | 359° |
| 2026-05-04 17:40 | 41.44865 | 4.63245 | 33942 ft | 492 kts | 359° |
| 2026-05-04 17:41 | 41.51646 | 4.64054 | 33963 ft | 492 kts | 359° |
| 2026-05-04 17:41 | 41.58467 | 4.64871 | 33957 ft | 491 kts | 359° |
| 2026-05-04 17:42 | 41.65276 | 4.65687 | 33949 ft | 491 kts | 359° |
| 2026-05-04 17:42 | 41.72066 | 4.67008 | 33949 ft | 498 kts | 12° |
| 2026-05-04 17:43 | 41.78448 | 4.70761 | 33945 ft | 505 kts | 29° |
| 2026-05-04 17:43 | 41.84437 | 4.75595 | 33944 ft | 505 kts | 28° |
| 2026-05-04 17:44 | 41.90482 | 4.80450 | 33962 ft | 505 kts | 28° |
| 2026-05-04 17:44 | 41.96516 | 4.85303 | 33949 ft | 505 kts | 28° |
| 2026-05-04 17:45 | 42.02545 | 4.90186 | 33950 ft | 505 kts | 28° |
| 2026-05-04 17:45 | 42.08562 | 4.95075 | 33959 ft | 505 kts | 28° |
| 2026-05-04 17:46 | 42.14582 | 4.99958 | 33958 ft | 505 kts | 28° |
| 2026-05-04 17:46 | 42.20567 | 5.04826 | 33953 ft | 505 kts | 28° |
| 2026-05-04 17:47 | 42.26577 | 5.09725 | 33957 ft | 505 kts | 28° |
| 2026-05-04 17:47 | 42.32592 | 5.14640 | 33975 ft | 505 kts | 28° |
| 2026-05-04 17:48 | 42.38601 | 5.19577 | 33981 ft | 505 kts | 29° |
| 2026-05-04 17:48 | 42.44600 | 5.24513 | 33984 ft | 505 kts | 28° |
| 2026-05-04 17:49 | 42.50610 | 5.29456 | 34002 ft | 505 kts | 29° |
| 2026-05-04 17:49 | 42.56612 | 5.34414 | 33969 ft | 504 kts | 28° |
| 2026-05-04 17:50 | 42.62601 | 5.39377 | 33972 ft | 504 kts | 28° |
| 2026-05-04 17:50 | 42.68560 | 5.44310 | 33976 ft | 505 kts | 28° |
| 2026-05-04 17:51 | 42.74558 | 5.49285 | 33983 ft | 505 kts | 29° |
| 2026-05-04 17:51 | 42.80557 | 5.54293 | 33990 ft | 505 kts | 29° |
| 2026-05-04 17:52 | 42.86547 | 5.59290 | 33989 ft | 505 kts | 29° |
| 2026-05-04 17:52 | 42.92541 | 5.64307 | 34025 ft | 505 kts | 29° |
| 2026-05-04 17:53 | 42.98526 | 5.69324 | 34019 ft | 505 kts | 29° |
| 2026-05-04 17:53 | 43.04504 | 5.74343 | 33999 ft | 504 kts | 29° |
| 2026-05-04 17:54 | 43.10478 | 5.79374 | 34027 ft | 503 kts | 29° |
| 2026-05-04 17:54 | 43.16402 | 5.84383 | 34032 ft | 503 kts | 29° |
| 2026-05-04 17:55 | 43.22352 | 5.89428 | 34026 ft | 503 kts | 29° |
| 2026-05-04 17:55 | 43.28307 | 5.94479 | 34040 ft | 503 kts | 29° |
| 2026-05-04 17:56 | 43.34257 | 5.99532 | 34035 ft | 503 kts | 29° |
| 2026-05-04 17:56 | 43.40581 | 6.03426 | 34055 ft | 493 kts | 11° |
| 2026-05-04 17:57 | 43.47231 | 6.04830 | 34060 ft | 483 kts | 358° |
| 2026-05-04 17:57 | 43.53936 | 6.05488 | 34059 ft | 483 kts | 358° |
| 2026-05-04 17:58 | 43.60638 | 6.06170 | 34051 ft | 482 kts | 358° |
| 2026-05-04 17:58 | 43.67331 | 6.06848 | 34059 ft | 482 kts | 359° |
| 2026-05-04 17:59 | 43.74011 | 6.07582 | 34059 ft | 483 kts | 3° |
| 2026-05-04 17:59 | 43.80483 | 6.10123 | 34041 ft | 493 kts | 21° |
| 2026-05-04 18:00 | 43.83569 | 6.12207 | 34041 ft | 494 kts | 22° |
| 2026-05-04 18:00 | 43.89741 | 6.16419 | 34064 ft | 494 kts | 22° |
| 2026-05-04 18:01 | 43.95889 | 6.20607 | 34073 ft | 492 kts | 23° |
| 2026-05-04 18:01 | 44.02027 | 6.24808 | 34073 ft | 491 kts | 23° |
| 2026-05-04 18:02 | 44.11199 | 6.31109 | 34086 ft | 489 kts | 23° |
| 2026-05-04 18:02 | 44.17297 | 6.35310 | 34082 ft | 488 kts | 23° |
| 2026-05-04 18:03 | 44.23382 | 6.39518 | 34099 ft | 488 kts | 24° |
| 2026-05-04 18:03 | 44.29464 | 6.43720 | 34110 ft | 487 kts | 24° |
| 2026-05-04 18:04 | 44.35533 | 6.47919 | 34087 ft | 486 kts | 23° |
| 2026-05-04 18:05 | 44.44624 | 6.54233 | 34123 ft | 487 kts | 23° |
| 2026-05-04 18:05 | 44.50646 | 6.58441 | 34132 ft | 486 kts | 23° |
| 2026-05-04 18:06 | 44.59681 | 6.64759 | 34136 ft | 486 kts | 23° |
| 2026-05-04 18:06 | 44.65735 | 6.69003 | 34145 ft | 486 kts | 23° |
| 2026-05-04 18:07 | 44.71779 | 6.73251 | 34142 ft | 485 kts | 23° |
| 2026-05-04 18:07 | 44.77920 | 6.77131 | 34139 ft | 480 kts | 13° |
| 2026-05-04 18:08 | 44.84417 | 6.78674 | 34162 ft | 469 kts | 356° |
| 2026-05-04 18:08 | 44.90904 | 6.78348 | 34159 ft | 465 kts | 352° |
| 2026-05-04 18:09 | 45.02720 | 6.77562 | 34161 ft | 464 kts | 352° |
| 2026-05-04 18:10 | 45.10228 | 6.77048 | 34152 ft | 464 kts | 352° |
| 2026-05-04 18:10 | 45.15593 | 6.76682 | 34141 ft | 465 kts | 352° |
| 2026-05-04 18:11 | 45.22059 | 6.76250 | 34133 ft | 465 kts | 352° |
| 2026-05-04 18:11 | 45.28523 | 6.75819 | 34114 ft | 465 kts | 352° |
| 2026-05-04 18:12 | 45.35002 | 6.75388 | 34107 ft | 466 kts | 352° |
| 2026-05-04 18:12 | 45.41483 | 6.74960 | 34115 ft | 466 kts | 352° |
| 2026-05-04 18:13 | 45.47929 | 6.74536 | 34102 ft | 466 kts | 352° |
| 2026-05-04 18:14 | 45.57648 | 6.73872 | 34112 ft | 466 kts | 352° |
| 2026-05-04 18:14 | 45.64128 | 6.73422 | 34101 ft | 466 kts | 352° |
| 2026-05-04 18:15 | 45.77078 | 6.72529 | 34068 ft | 466 kts | 352° |
| 2026-05-04 18:16 | 45.83556 | 6.72090 | 34066 ft | 466 kts | 352° |
| 2026-05-04 18:16 | 45.90045 | 6.71647 | 34068 ft | 467 kts | 352° |
| 2026-05-04 18:17 | 45.99782 | 6.70975 | 34054 ft | 468 kts | 352° |
| 2026-05-04 18:18 | 46.09515 | 6.70337 | 34037 ft | 470 kts | 355° |
| 2026-05-04 18:18 | 46.16050 | 6.71529 | 34029 ft | 480 kts | 12° |
| 2026-05-04 18:19 | 46.25669 | 6.75611 | 34039 ft | 480 kts | 13° |
| 2026-05-04 18:19 | 46.32088 | 6.78332 | 34036 ft | 480 kts | 13° |
| 2026-05-04 18:20 | 46.38496 | 6.81050 | 34037 ft | 479 kts | 13° |
| 2026-05-04 18:20 | 46.44858 | 6.83754 | 34039 ft | 479 kts | 14° |
| 2026-05-04 18:21 | 46.51234 | 6.86630 | 34014 ft | 481 kts | 20° |
| 2026-05-04 18:21 | 46.56978 | 6.91580 | 34026 ft | 483 kts | 39° |
| 2026-05-04 18:22 | 46.61528 | 6.98716 | 34024 ft | 482 kts | 51° |
| 2026-05-04 18:22 | 46.65742 | 7.06325 | 34021 ft | 482 kts | 51° |
| 2026-05-04 18:23 | 46.69950 | 7.13918 | 34020 ft | 482 kts | 51° |
| 2026-05-04 18:23 | 46.74153 | 7.21531 | 34024 ft | 482 kts | 51° |
| 2026-05-04 18:24 | 46.78317 | 7.29120 | 34034 ft | 482 kts | 52° |
| 2026-05-04 18:24 | 46.82493 | 7.36749 | 34008 ft | 481 kts | 52° |
| 2026-05-04 18:25 | 46.86670 | 7.44381 | 34016 ft | 480 kts | 51° |
| 2026-05-04 18:25 | 46.90844 | 7.52020 | 34018 ft | 480 kts | 52° |
| 2026-05-04 18:26 | 46.94999 | 7.59669 | 34028 ft | 480 kts | 52° |
| 2026-05-04 18:26 | 46.99135 | 7.67325 | 34026 ft | 479 kts | 52° |
| 2026-05-04 18:27 | 47.03281 | 7.75002 | 34016 ft | 479 kts | 52° |
| 2026-05-04 18:27 | 47.07429 | 7.82690 | 34264 ft | 483 kts | 52° |
| 2026-05-04 18:28 | 47.09513 | 7.86568 | 34523 ft | 483 kts | 52° |
| 2026-05-04 18:28 | 47.11591 | 7.90444 | 34812 ft | 483 kts | 52° |
| 2026-05-04 18:28 | 47.13633 | 7.94360 | 35095 ft | 482 kts | 56° |
| 2026-05-04 18:28 | 47.15437 | 7.98494 | 35367 ft | 481 kts | 59° |
| 2026-05-04 18:29 | 47.17207 | 8.02656 | 35628 ft | 480 kts | 59° |
| 2026-05-04 18:29 | 47.18971 | 8.06808 | 35887 ft | 480 kts | 58° |
| 2026-05-04 18:29 | 47.20748 | 8.10986 | 36018 ft | 480 kts | 58° |
| 2026-05-04 18:29 | 47.22521 | 8.15152 | 36024 ft | 480 kts | 58° |
| 2026-05-04 18:30 | 47.27877 | 8.27559 | 36023 ft | 479 kts | 52° |
| 2026-05-04 18:31 | 47.32613 | 8.34428 | 36030 ft | 476 kts | 34° |
| 2026-05-04 18:31 | 47.38352 | 8.39047 | 36021 ft | 473 kts | 24° |
| 2026-05-04 18:32 | 47.44302 | 8.43239 | 36025 ft | 474 kts | 24° |
| 2026-05-04 18:32 | 47.50245 | 8.47468 | 36011 ft | 474 kts | 24° |
| 2026-05-04 18:33 | 47.56179 | 8.51697 | 36020 ft | 473 kts | 24° |
| 2026-05-04 18:33 | 47.62112 | 8.55928 | 36013 ft | 473 kts | 24° |
| 2026-05-04 18:34 | 47.68044 | 8.60169 | 36013 ft | 473 kts | 24° |
| 2026-05-04 18:34 | 47.73968 | 8.64422 | 36003 ft | 473 kts | 25° |
| 2026-05-04 18:35 | 47.79908 | 8.68687 | 35998 ft | 473 kts | 24° |
| 2026-05-04 18:35 | 47.85797 | 8.72921 | 35997 ft | 473 kts | 24° |
| 2026-05-04 18:36 | 47.91721 | 8.77199 | 35999 ft | 473 kts | 25° |
| 2026-05-04 18:36 | 47.97643 | 8.81489 | 35996 ft | 473 kts | 25° |
| 2026-05-04 18:37 | 48.03562 | 8.85774 | 35997 ft | 472 kts | 25° |
| 2026-05-04 18:37 | 48.09476 | 8.90078 | 35996 ft | 472 kts | 25° |
| 2026-05-04 18:38 | 48.15438 | 8.94177 | 35991 ft | 471 kts | 17° |
| 2026-05-04 18:38 | 48.21816 | 8.96108 | 35983 ft | 467 kts | 3° |
| 2026-05-04 18:39 | 48.28291 | 8.97086 | 35974 ft | 468 kts | 4° |
| 2026-05-04 18:39 | 48.34739 | 8.98060 | 35975 ft | 469 kts | 4° |
| 2026-05-04 18:39 | 48.38000 | 8.98553 | 35475 ft | 473 kts | 4° |
| 2026-05-04 18:40 | 48.41317 | 8.99056 | 34387 ft | 484 kts | 4° |
| 2026-05-04 18:40 | 48.44703 | 8.99573 | 33395 ft | 490 kts | 4° |
| 2026-05-04 18:40 | 48.48102 | 9.00092 | 32405 ft | 495 kts | 4° |
| 2026-05-04 18:40 | 48.51534 | 9.00614 | 31421 ft | 495 kts | 4° |
| 2026-05-04 18:41 | 48.54960 | 9.01143 | 30341 ft | 493 kts | 4° |
| 2026-05-04 18:41 | 48.58372 | 9.01672 | 29213 ft | 491 kts | 4° |
| 2026-05-04 18:41 | 48.61754 | 9.02193 | 28240 ft | 484 kts | 4° |
| 2026-05-04 18:41 | 48.65079 | 9.02760 | 27314 ft | 477 kts | 5° |
| 2026-05-04 18:42 | 48.68337 | 9.03455 | 26425 ft | 470 kts | 7° |
| 2026-05-04 18:42 | 48.71545 | 9.04244 | 25698 ft | 460 kts | 7° |
| 2026-05-04 18:42 | 48.74655 | 9.05060 | 25187 ft | 446 kts | 8° |
| 2026-05-04 18:42 | 48.77668 | 9.05855 | 24668 ft | 433 kts | 7° |
| 2026-05-04 18:43 | 48.80555 | 9.06596 | 24186 ft | 420 kts | 7° |
| 2026-05-04 18:43 | 48.83401 | 9.07301 | 23721 ft | 411 kts | 7° |
| 2026-05-04 18:43 | 48.86206 | 9.07973 | 23227 ft | 407 kts | 6° |
| 2026-05-04 18:43 | 48.88995 | 9.08614 | 22783 ft | 402 kts | 5° |
| 2026-05-04 18:44 | 48.91751 | 9.09118 | 22362 ft | 396 kts | 4° |
| 2026-05-04 18:44 | 48.93557 | 9.09384 | 22080 ft | 392 kts | 3° |
| 2026-05-04 18:44 | 48.97168 | 9.09832 | 21523 ft | 386 kts | 2° |
| 2026-05-04 18:44 | 48.99833 | 9.10144 | 21120 ft | 382 kts | 2° |
| 2026-05-04 18:45 | 49.02480 | 9.10468 | 20683 ft | 383 kts | 3° |
| 2026-05-04 18:45 | 49.05191 | 9.10814 | 20187 ft | 396 kts | 3° |
| 2026-05-04 18:45 | 49.07937 | 9.11189 | 19686 ft | 397 kts | 4° |
| 2026-05-04 18:45 | 49.10687 | 9.11584 | 19192 ft | 395 kts | 4° |
| 2026-05-04 18:46 | 49.13412 | 9.11985 | 18702 ft | 394 kts | 4° |
| 2026-05-04 18:46 | 49.16144 | 9.12389 | 18202 ft | 392 kts | 4° |
| 2026-05-04 18:46 | 49.18852 | 9.12789 | 17675 ft | 390 kts | 4° |
| 2026-05-04 18:46 | 49.21536 | 9.13182 | 17191 ft | 386 kts | 4° |
| 2026-05-04 18:47 | 49.24200 | 9.13566 | 16715 ft | 383 kts | 4° |
| 2026-05-04 18:47 | 49.26840 | 9.13946 | 16238 ft | 380 kts | 4° |
| 2026-05-04 18:47 | 49.29411 | 9.14524 | 15762 ft | 378 kts | 12° |
| 2026-05-04 18:47 | 49.31981 | 9.15423 | 15232 ft | 378 kts | 12° |
| 2026-05-04 18:48 | 49.34541 | 9.16324 | 14715 ft | 377 kts | 12° |
| 2026-05-04 18:48 | 49.37103 | 9.17231 | 14197 ft | 377 kts | 12° |
| 2026-05-04 18:48 | 49.39656 | 9.18139 | 13672 ft | 376 kts | 12° |
| 2026-05-04 18:48 | 49.42207 | 9.19049 | 13120 ft | 375 kts | 12° |
| 2026-05-04 18:49 | 49.44742 | 9.19950 | 12610 ft | 373 kts | 12° |
| 2026-05-04 18:49 | 49.47270 | 9.20544 | 12274 ft | 363 kts | 359° |
| 2026-05-04 18:49 | 49.49735 | 9.20136 | 12020 ft | 353 kts | 348° |
| 2026-05-04 18:49 | 49.52147 | 9.19507 | 11766 ft | 349 kts | 348° |
| 2026-05-04 18:50 | 49.54537 | 9.18875 | 11517 ft | 348 kts | 348° |
| 2026-05-04 18:50 | 49.56920 | 9.18238 | 11265 ft | 347 kts | 348° |
| 2026-05-04 18:50 | 49.59248 | 9.17610 | 11020 ft | 346 kts | 348° |
| 2026-05-04 18:50 | 49.61655 | 9.16960 | 10780 ft | 344 kts | 348° |
| 2026-05-04 18:51 | 49.63986 | 9.16332 | 10531 ft | 343 kts | 348° |
| 2026-05-04 18:51 | 49.66323 | 9.15705 | 10288 ft | 341 kts | 348° |
| 2026-05-04 18:51 | 49.68657 | 9.15079 | 10046 ft | 341 kts | 348° |
| 2026-05-04 18:51 | 49.70975 | 9.14456 | 9855 ft | 332 kts | 348° |
| 2026-05-04 18:52 | 49.73211 | 9.13855 | 9728 ft | 320 kts | 348° |
| 2026-05-04 18:52 | 49.75271 | 9.13300 | 9602 ft | 310 kts | 348° |
| 2026-05-04 18:52 | 49.77364 | 9.12736 | 9466 ft | 302 kts | 348° |
| 2026-05-04 18:52 | 49.79429 | 9.12179 | 9334 ft | 301 kts | 348° |
| 2026-05-04 18:53 | 49.81489 | 9.11618 | 9201 ft | 300 kts | 348° |
| 2026-05-04 18:53 | 49.83541 | 9.11059 | 9079 ft | 299 kts | 348° |
| 2026-05-04 18:53 | 49.85587 | 9.10504 | 8941 ft | 298 kts | 348° |
| 2026-05-04 18:53 | 49.87621 | 9.09952 | 8817 ft | 297 kts | 348° |
| 2026-05-04 18:54 | 49.89657 | 9.09401 | 8693 ft | 297 kts | 348° |
| 2026-05-04 18:54 | 49.91698 | 9.08845 | 8560 ft | 297 kts | 348° |
| 2026-05-04 18:54 | 49.93737 | 9.08289 | 8328 ft | 296 kts | 348° |
| 2026-05-04 18:54 | 49.95760 | 9.07739 | 8068 ft | 295 kts | 348° |
| 2026-05-04 18:55 | 49.97778 | 9.07191 | 7823 ft | 294 kts | 348° |
| 2026-05-04 18:55 | 50.01789 | 9.06098 | 7300 ft | 291 kts | 348° |
| 2026-05-04 18:55 | 50.03778 | 9.05554 | 7023 ft | 290 kts | 348° |
| 2026-05-04 18:56 | 50.05740 | 9.05018 | 6758 ft | 289 kts | 349° |
| 2026-05-04 18:56 | 50.07675 | 9.04489 | 6490 ft | 288 kts | 349° |
| 2026-05-04 18:56 | 50.09641 | 9.03926 | 6225 ft | 286 kts | 345° |
| 2026-05-04 18:56 | 50.11436 | 9.02717 | 5943 ft | 280 kts | 320° |
| 2026-05-04 18:57 | 50.12642 | 9.00424 | 5731 ft | 273 kts | 291° |
| 2026-05-04 18:57 | 50.13011 | 8.97581 | 5486 ft | 267 kts | 264° |
| 2026-05-04 18:57 | 50.12565 | 8.94836 | 5174 ft | 260 kts | 248° |
| 2026-05-04 18:57 | 50.11950 | 8.92258 | 4858 ft | 257 kts | 248° |
| 2026-05-04 18:58 | 50.11331 | 8.89650 | 4502 ft | 255 kts | 249° |
| 2026-05-04 18:58 | 50.10723 | 8.87061 | 4163 ft | 253 kts | 249° |
| 2026-05-04 18:58 | 50.10128 | 8.84528 | 3836 ft | 246 kts | 249° |
| 2026-05-04 18:58 | 50.09547 | 8.82059 | 3501 ft | 240 kts | 249° |
| 2026-05-04 18:59 | 50.09168 | 8.80453 | 3290 ft | 235 kts | 250° |
| 2026-05-04 18:59 | 50.08607 | 8.78075 | 2973 ft | 227 kts | 250° |
| 2026-05-04 18:59 | 50.08074 | 8.75818 | 2694 ft | 216 kts | 250° |
| 2026-05-04 18:59 | 50.07579 | 8.73725 | 2418 ft | 202 kts | 251° |
| 2026-05-04 19:00 | 50.07120 | 8.71788 | 2155 ft | 179 kts | 251° |
| 2026-05-04 19:00 | 50.06754 | 8.70071 | 1887 ft | 158 kts | 260° |
| 2026-05-04 19:00 | 50.06680 | 8.68408 | 1532 ft | 151 kts | 268° |
| 2026-05-04 19:00 | 50.06454 | 8.66852 | 1287 ft | 148 kts | 249° |
| 2026-05-04 19:01 | 50.06077 | 8.65371 | 1133 ft | 146 kts | 252° |
| 2026-05-04 19:01 | 50.05738 | 8.63879 | 1037 ft | 146 kts | 249° |
| 2026-05-04 19:01 | 50.05373 | 8.62414 | 900 ft | 145 kts | 253° |
| 2026-05-04 19:01 | 50.05041 | 8.60952 | 730 ft | 143 kts | 252° |
| 2026-05-04 19:02 | 50.04697 | 8.59502 | 510 ft | 142 kts | 251° |
| 2026-05-04 19:02 | 50.04353 | 8.58075 | 373 ft | 137 kts | 251° |
| 2026-05-04 19:02 | 50.04082 | 8.56889 | 363 ft | 91 kts | 249° |
| 2026-05-04 19:02 | 50.03927 | 8.56259 | 354 ft | 36 kts | 254° |
| 2026-05-04 19:03 | 50.03889 | 8.55923 | 351 ft | 23 kts | 269° |
| 2026-05-04 19:03 | 50.03902 | 8.55704 | 350 ft | 12 kts | 282° |
| 2026-05-04 19:03 | 50.03916 | 8.55648 | 348 ft | 5 kts | 300° |
| 2026-05-04 19:03 | 50.03943 | 8.55626 | 354 ft | 4 kts | 356° |
| 2026-05-04 19:04 | 50.03974 | 8.55655 | 355 ft | 9 kts | 51° |
| 2026-05-04 19:04 | 50.04009 | 8.55785 | 355 ft | 14 kts | 70° |
| 2026-05-04 19:04 | 50.04039 | 8.55913 | 358 ft | 12 kts | 69° |
| 2026-05-04 19:04 | 50.04089 | 8.55970 | 352 ft | 8 kts | 355° |
| 2026-05-04 19:05 | 50.04131 | 8.55949 | 354 ft | 6 kts | 340° |
| 2026-05-04 19:05 | 50.04180 | 8.55921 | 354 ft | 1 kts | 340° |
| 2026-05-04 19:05 | 50.04191 | 8.55914 | 354 ft | 6 kts | 337° |
| 2026-05-04 19:05 | 50.04212 | 8.55824 | 355 ft | 10 kts | 252° |
| 2026-05-04 19:06 | 50.04187 | 8.55721 | 357 ft | 10 kts | 250° |
| 2026-05-04 19:06 | 50.04164 | 8.55624 | 359 ft | 9 kts | 250° |
| 2026-05-04 19:06 | 50.04146 | 8.55579 | 359 ft | 2 kts | 195° |
| 2026-05-04 19:06 | 50.04141 | 8.55580 | 358 ft | 2 kts | 180° |
| 2026-05-04 19:07 | 50.04091 | 8.55601 | 356 ft | 7 kts | 160° |
| 2026-05-04 19:07 | 50.04075 | 8.55611 | 356 ft | 1 kts | 160° |
| 2026-05-04 19:07 | 50.04069 | 8.55614 | 354 ft | 1 kts | 159° |
| 2026-05-04 19:07 | 50.04065 | 8.55616 | 353 ft | 0 kts | 159° |